Time;durP1;ratioP1;P1;durP2;ratioP2;P2;SDS_P1;SDS_P2;PMS_P1;PMS_P2;Temp;Humidity;BMP_temperature;BMP_pressure;BME280_temperature;BME280_humidity;BME280_pressure;Samples;Min_cycle;Max_cycle;Signal;HPM_P1;HPM_P2
2022/05/02 00:01:53;;;;;;;10.63;4.80;;;16.00;56.10;;;;;;5073563;28;20433;-71
2022/05/02 00:04:20;;;;;;;10.68;4.75;;;15.90;56.40;;;;;;5084943;28;20044;-71
2022/05/02 00:06:48;;;;;;;10.02;5.35;;;15.90;56.30;;;;;;5092652;28;20054;-71
2022/05/02 00:09:15;;;;;;;10.85;4.82;;;15.70;56.50;;;;;;5092536;28;20461;-71
2022/05/02 00:11:42;;;;;;;8.70;4.70;;;;;;;;;;5093346;28;20058;-71
2022/05/02 00:14:09;;;;;;;11.13;5.18;;;15.50;56.30;;;;;;5093732;28;20054;-71
2022/05/02 00:16:36;;;;;;;10.52;5.15;;;15.70;56.50;;;;;;5092243;28;20054;-71
2022/05/02 00:19:03;;;;;;;11.52;4.80;;;15.90;56.50;;;;;;5092640;28;20093;-71
2022/05/02 00:21:29;;;;;;;9.18;4.85;;;15.30;56.10;;;;;;5091184;28;20052;-71
2022/05/02 00:23:57;;;;;;;9.45;4.68;;;15.90;56.30;;;;;;5093494;28;20058;-71
2022/05/02 00:26:24;;;;;;;9.27;4.40;;;;;;;;;;5093314;28;20052;-71
2022/05/02 00:28:51;;;;;;;10.05;4.50;;;15.80;56.40;;;;;;5093389;28;20434;-71
2022/05/02 00:31:18;;;;;;;9.65;4.25;;;15.30;56.20;;;;;;5091578;28;20044;-71
2022/05/02 00:33:45;;;;;;;9.60;4.47;;;;;;;;;;5126147;27;20055;-71
2022/05/02 00:36:11;;;;;;;10.05;4.53;;;16.00;56.60;;;;;;5090312;28;20056;-71
2022/05/02 00:38:38;;;;;;;9.93;4.72;;;15.80;56.30;;;;;;5092100;28;20052;-71
2022/05/02 00:41:06;;;;;;;12.38;4.00;;;15.80;50.10;;;;;;5091526;28;20048;-70
2022/05/02 00:43:33;;;;;;;10.32;4.30;;;;;;;;;;5091569;28;20056;-71
2022/05/02 00:46:00;;;;;;;9.95;4.32;;;16.40;56.60;;;;;;5072451;28;20051;-71
2022/05/02 00:48:29;;;;;;;8.75;4.18;;;;;;;;;;5072614;28;20056;-71
2022/05/02 00:50:56;;;;;;;7.40;4.38;;;15.50;56.10;;;;;;5072407;28;20044;-71
2022/05/02 00:53:24;;;;;;;8.80;4.47;;;15.90;49.80;;;;;;5071819;28;20421;-71
2022/05/02 00:55:51;;;;;;;8.18;4.28;;;16.00;56.30;;;;;;5071332;28;20048;-71
2022/05/02 00:58:19;;;;;;;8.68;4.22;;;16.00;56.30;;;;;;5071518;28;20083;-71
2022/05/02 01:00:46;;;;;;;8.07;3.97;;;15.90;56.60;;;;;;5071008;28;20053;-71
2022/05/02 01:03:14;;;;;;;7.20;3.85;;;15.90;49.80;;;;;;5071309;28;20052;-71
2022/05/02 01:08:22;;;;;;;9.55;4.00;;;15.90;56.50;;;;;;5076068;28;20048;-71
2022/05/02 01:10:49;;;;;;;8.65;3.92;;;15.90;56.50;;;;;;5092280;28;20052;-71
2022/05/02 01:13:32;;;;;;;7.85;4.50;;;15.40;51.00;;;;;;5091369;28;20424;-71
2022/05/02 01:15:59;;;;;;;6.95;3.70;;;16.00;56.60;;;;;;5091421;28;20838;-71
2022/05/02 01:18:26;;;;;;;8.55;3.83;;;15.90;53.20;;;;;;5091005;28;20051;-71
2022/05/02 01:20:54;;;;;;;7.20;4.22;;;15.40;56.30;;;;;;5092167;28;20067;-71
2022/05/02 01:23:20;;;;;;;7.13;3.85;;;16.30;56.60;;;;;;5091194;28;20497;-71
2022/05/02 01:25:47;;;;;;;5.32;3.50;;;15.90;56.40;;;;;;5090848;28;20074;-71
2022/05/02 01:28:14;;;;;;;7.68;3.65;;;15.30;51.80;;;;;;5090984;28;20056;-71
2022/05/02 01:30:41;;;;;;;8.68;3.65;;;15.80;56.30;;;;;;5090767;28;20054;-70
2022/05/02 01:33:10;;;;;;;8.30;4.00;;;15.90;56.30;;;;;;5090985;28;20097;-71
2022/05/02 01:35:37;;;;;;;6.60;3.50;;;;;;;;;;5092098;28;20131;-71
2022/05/02 01:38:05;;;;;;;6.90;3.65;;;15.90;56.50;;;;;;5090837;28;20044;-71
2022/05/02 01:40:32;;;;;;;8.25;3.90;;;15.70;56.30;;;;;;5088766;28;20051;-71
2022/05/02 01:42:59;;;;;;;9.07;3.55;;;15.80;56.50;;;;;;5091867;28;20048;-71
2022/05/02 01:45:26;;;;;;;6.55;3.90;;;16.60;56.80;;;;;;5090930;28;20403;-71
2022/05/02 01:47:52;;;;;;;9.15;4.15;;;15.80;56.60;;;;;;5090450;28;20048;-70
2022/05/02 01:50:19;;;;;;;7.68;3.97;;;15.70;56.50;;;;;;5090538;28;20066;-71
2022/05/02 01:52:46;;;;;;;8.75;4.00;;;15.70;56.60;;;;;;5091825;28;20482;-71
2022/05/02 01:55:14;;;;;;;6.30;3.80;;;15.20;56.30;;;;;;5090607;28;20066;-71
2022/05/02 01:57:40;;;;;;;6.28;3.72;;;15.90;56.80;;;;;;5075994;28;20053;-71
2022/05/02 02:00:09;;;;;;;7.65;3.88;;;15.70;56.70;;;;;;5079276;28;20054;-71
2022/05/02 02:02:36;;;;;;;8.70;3.65;;;15.60;56.30;;;;;;5124927;28;20052;-71
2022/05/02 02:07:47;;;;;;;7.78;3.85;;;15.70;56.70;;;;;;5124638;28;20439;-71
2022/05/02 02:10:15;;;;;;;6.93;3.30;;;15.60;56.50;;;;;;5090207;28;20047;-71
2022/05/02 02:12:41;;;;;;;6.28;3.30;;;15.60;54.30;;;;;;5084735;28;20048;-71
2022/05/02 02:15:14;;;;;;;5.82;3.40;;;15.80;56.50;;;;;;5078779;28;20423;-71
2022/05/02 02:17:40;;;;;;;6.28;3.38;;;15.50;56.50;;;;;;5124790;28;20055;-70
2022/05/02 02:20:08;;;;;;;8.05;3.70;;;15.20;56.10;;;;;;5090265;28;20052;-71
2022/05/02 02:22:35;;;;;;;6.53;3.60;;;15.70;56.50;;;;;;5124757;28;20056;-71
2022/05/02 02:25:02;;;;;;;7.25;3.42;;;15.70;56.60;;;;;;5090360;28;20064;-71
2022/05/02 02:27:30;;;;;;;9.30;4.07;;;15.30;56.20;;;;;;5090533;28;20052;-71
2022/05/02 02:29:57;;;;;;;8.68;3.60;;;15.60;56.50;;;;;;5089969;28;20062;-71
2022/05/02 02:32:23;;;;;;;8.93;3.95;;;15.70;56.60;;;;;;5090110;28;20045;-71
2022/05/02 02:34:50;;;;;;;8.90;3.90;;;15.70;56.30;;;;;;5091339;28;20040;-71
2022/05/02 02:37:17;;;;;;;10.43;4.15;;;15.70;56.60;;;;;;5091418;28;20048;-71
2022/05/02 02:39:44;;;;;;;8.48;3.70;;;16.50;54.10;;;;;;5090207;28;20063;-71
2022/05/02 02:42:11;;;;;;;8.73;4.70;;;15.70;56.60;;;;;;5091385;28;20056;-71
2022/05/02 02:44:39;;;;;;;8.07;3.38;;;15.80;56.60;;;;;;5089641;28;20066;-70
2022/05/02 02:47:06;;;;;;;7.93;3.80;;;15.30;56.30;;;;;;5090893;28;20050;-71
2022/05/02 02:49:32;;;;;;;8.65;3.78;;;15.80;56.70;;;;;;5090180;28;20047;-71
2022/05/02 02:51:59;;;;;;;8.35;3.97;;;15.80;56.30;;;;;;5091308;28;20408;-70
2022/05/02 02:54:26;;;;;;;5.15;3.03;;;;;;;;;;5090069;28;20048;-71
2022/05/02 02:56:53;;;;;;;9.40;4.22;;;15.70;54.30;;;;;;5089939;28;20059;-71
2022/05/02 02:59:20;;;;;;;8.77;3.78;;;15.70;56.20;;;;;;5091276;28;20055;-71
2022/05/02 03:01:49;;;;;;;9.05;3.97;;;15.80;53.00;;;;;;5086512;28;20496;-71
2022/05/02 03:07:00;;;;;;;7.93;3.50;;;;;;;;;;5103586;28;20571;-71
2022/05/02 03:09:27;;;;;;;9.15;4.82;;;15.80;56.30;;;;;;5071760;28;20493;-71
2022/05/02 03:11:54;;;;;;;10.02;4.25;;;16.20;56.40;;;;;;5074299;28;20528;-71
2022/05/02 03:14:21;;;;;;;12.32;4.47;;;15.70;56.60;;;;;;5073218;28;20063;-70
2022/05/02 03:16:49;;;;;;;10.25;4.40;;;15.80;56.20;;;;;;5073255;28;20058;-71
2022/05/02 03:19:15;;;;;;;8.60;4.03;;;15.90;56.40;;;;;;5089408;28;20064;-71
2022/05/02 03:21:42;;;;;;;9.60;4.93;;;15.70;56.20;;;;;;5093455;28;20127;-71
2022/05/02 03:24:09;;;;;;;10.50;4.50;;;;;;;;;;5093512;28;20489;-71
2022/05/02 03:26:36;;;;;;;8.88;4.15;;;15.60;56.10;;;;;;5094410;28;20412;-70
2022/05/02 03:29:03;;;;;;;8.75;4.57;;;;;;;;;;5092940;28;20058;-71
2022/05/02 03:31:31;;;;;;;10.00;4.80;;;15.80;56.20;;;;;;5092804;28;20052;-71
2022/05/02 03:33:59;;;;;;;13.95;5.20;;;15.50;56.00;;;;;;5091712;28;20068;-71
2022/05/02 03:36:25;;;;;;;10.18;4.28;;;15.70;56.50;;;;;;5094285;28;20516;-71
2022/05/02 03:38:52;;;;;;;11.13;4.85;;;15.80;56.30;;;;;;5093263;28;20052;-71
2022/05/02 03:41:19;;;;;;;10.45;4.82;;;;;;;;;;5092868;28;20048;-71
2022/05/02 03:43:46;;;;;;;8.68;4.47;;;15.80;56.10;;;;;;5092968;28;20051;-71
2022/05/02 03:46:13;;;;;;;13.02;5.00;;;15.90;56.60;;;;;;5092988;28;20055;-71
2022/05/02 03:48:39;;;;;;;10.88;4.90;;;15.80;56.20;;;;;;5094258;28;20123;-70
2022/05/02 03:51:08;;;;;;;10.23;4.75;;;15.60;56.00;;;;;;5083673;28;20067;-71
2022/05/02 03:53:34;;;;;;;10.20;4.63;;;15.70;56.40;;;;;;5073865;28;20409;-71
2022/05/02 03:56:01;;;;;;;10.15;4.63;;;15.60;56.10;;;;;;5073577;28;20135;-71
2022/05/02 03:58:28;;;;;;;11.13;4.32;;;15.60;55.90;;;;;;5072413;28;20059;-70
2022/05/02 04:00:55;;;;;;;13.85;5.00;;;15.70;56.20;;;;;;5072481;28;20048;-70
2022/05/02 04:03:22;;;;;;;10.18;4.72;;;;;;;;;;5073350;28;20048;-71
2022/05/02 04:05:48;;;;;;;13.75;5.18;;;15.60;56.30;;;;;;5072475;28;20071;-71
2022/05/02 04:08:16;;;;;;;10.77;4.18;;;15.70;56.20;;;;;;5074519;28;20049;-70
2022/05/02 04:10:43;;;;;;;10.35;4.68;;;15.70;56.50;;;;;;5071732;28;20062;-70
2022/05/02 04:13:10;;;;;;;11.45;4.97;;;15.60;56.00;;;;;;5073227;28;20401;-70
2022/05/02 04:15:37;;;;;;;11.52;4.95;;;15.90;56.20;;;;;;5055646;28;20063;-70
2022/05/02 04:18:04;;;;;;;12.55;5.13;;;15.60;56.20;;;;;;5106005;28;20044;-71
2022/05/02 04:20:31;;;;;;;11.88;5.30;;;15.80;56.30;;;;;;5105427;28;20060;-70
2022/05/02 04:22:57;;;;;;;13.00;5.05;;;15.20;56.00;;;;;;5073035;28;20044;-70
2022/05/02 04:25:25;;;;;;;12.18;4.82;;;15.60;56.50;;;;;;5072353;28;20049;-71
2022/05/02 04:27:52;;;;;;;12.43;5.25;;;;;;;;;;5105039;28;20052;-71
2022/05/02 04:30:19;;;;;;;12.57;4.97;;;15.70;56.40;;;;;;5070380;28;20064;-70
2022/05/02 04:32:46;;;;;;;10.18;5.00;;;15.00;55.70;;;;;;5070749;28;20052;-70
2022/05/02 04:35:13;;;;;;;11.32;5.10;;;;;;;;;;5071072;28;20473;-70
2022/05/02 04:37:40;;;;;;;10.18;5.03;;;15.40;56.10;;;;;;5071467;28;20064;-71
2022/05/02 04:40:08;;;;;;;13.57;5.43;;;15.70;56.00;;;;;;5072339;28;20056;-71
2022/05/02 04:42:37;;;;;;;13.45;5.55;;;16.00;55.70;;;;;;5105685;28;20500;-71
2022/05/02 04:45:04;;;;;;;10.95;4.18;;;15.90;55.40;;;;;;5074777;28;20062;-70
2022/05/02 04:47:31;;;;;;;14.85;4.45;;;15.90;55.60;;;;;;5091562;28;20051;-71
2022/05/02 04:49:58;;;;;;;9.70;4.72;;;16.10;55.20;;;;;;5092885;28;20044;-71
2022/05/02 04:52:24;;;;;;;10.25;4.30;;;16.10;55.60;;;;;;5093120;28;20052;-70
2022/05/02 04:54:51;;;;;;;8.90;4.05;;;;;;;;;;5092926;28;20051;-72
2022/05/02 04:57:18;;;;;;;9.38;4.18;;;16.20;55.50;;;;;;5076265;28;20052;-71
2022/05/02 04:59:46;;;;;;;12.57;4.82;;;15.90;55.30;;;;;;5073478;28;20049;-71
2022/05/02 05:02:13;;;;;;;10.02;4.75;;;15.90;55.60;;;;;;5092735;28;20404;-71
2022/05/02 05:04:39;;;;;;;11.50;4.25;;;15.80;50.30;;;;;;5091612;28;20530;-71
2022/05/02 05:07:06;;;;;;;10.23;4.93;;;15.90;55.40;;;;;;5094938;28;20066;-71
2022/05/02 05:09:33;;;;;;;9.95;5.05;;;15.90;55.80;;;;;;5100767;28;20086;-70
2022/05/02 05:12:04;;;;;;;12.88;5.63;;;15.60;48.90;;;;;;5101070;28;20415;-71
2022/05/02 05:17:32;;;;;;;10.35;4.95;;;15.70;55.80;;;;;;5101828;28;20044;-71
2022/05/02 05:20:05;;;;;;;10.10;5.10;;;15.80;55.50;;;;;;5103018;28;20048;-71
2022/05/02 05:22:53;;;;;;;10.93;4.63;;;15.10;55.30;;;;;;5099625;28;20088;-72
2022/05/02 05:25:28;;;;;;;11.07;4.97;;;15.30;50.60;;;;;;5095870;28;20051;-71
2022/05/02 05:28:02;;;;;;;11.02;4.70;;;15.20;55.40;;;;;;5073432;28;20056;-71
2022/05/02 05:30:29;;;;;;;11.00;4.85;;;15.70;55.60;;;;;;5070742;28;20058;-71
2022/05/02 05:33:04;;;;;;;11.02;4.90;;;15.70;49.10;;;;;;5103776;28;20048;-72
2022/05/02 05:35:38;;;;;;;14.32;5.68;;;15.80;54.90;;;;;;5070920;28;20056;-71
2022/05/02 05:38:07;;;;;;;15.32;6.20;;;16.60;54.50;;;;;;5070847;28;20063;-70
2022/05/02 05:40:38;;;;;;;14.88;6.60;;;15.40;55.60;;;;;;5070690;28;20061;-69
2022/05/02 05:43:10;;;;;;;14.10;6.43;;;16.10;50.70;;;;;;5083480;28;20059;-69
2022/05/02 05:46:02;;;;;;;15.45;6.97;;;15.20;55.40;;;;;;5090978;28;20052;-70
2022/05/02 05:48:36;;;;;;;13.90;6.20;;;15.70;56.10;;;;;;5087925;28;20059;-69
2022/05/02 05:51:09;;;;;;;15.63;6.57;;;15.80;55.90;;;;;;5092173;28;20074;-69
2022/05/02 05:53:39;;;;;;;11.30;5.78;;;15.80;55.70;;;;;;5092063;28;20051;-69
2022/05/02 05:56:18;;;;;;;15.60;6.82;;;16.00;56.00;;;;;;5091955;28;20040;-70
2022/05/02 05:58:49;;;;;;;13.23;6.13;;;16.00;51.90;;;;;;5090472;28;20089;-69
2022/05/02 06:01:19;;;;;;;12.13;5.82;;;15.70;55.50;;;;;;5090763;28;20552;-70
2022/05/02 06:03:55;;;;;;;12.88;5.63;;;16.00;55.80;;;;;;5092172;28;20040;-70
2022/05/02 06:06:22;;;;;;;14.82;6.53;;;16.10;55.40;;;;;;5091953;28;20055;-69
2022/05/02 06:08:49;;;;;;;11.98;5.43;;;16.10;55.20;;;;;;5091458;28;20048;-69
2022/05/02 06:11:16;;;;;;;12.80;5.80;;;15.50;55.00;;;;;;5092029;28;20048;-69
2022/05/02 06:13:43;;;;;;;11.40;5.63;;;16.70;55.50;;;;;;5090464;28;20509;-70
2022/05/02 06:18:56;;;;;;;12.65;5.32;;;15.60;54.40;;;;;;5104558;28;20052;-70
2022/05/02 06:21:22;;;;;;;10.30;4.70;;;15.70;54.60;;;;;;5071457;28;20044;-69
2022/05/02 06:23:51;;;;;;;10.63;4.97;;;;;;;;;;5071214;28;20048;-69
2022/05/02 06:26:18;;;;;;;10.68;4.82;;;17.70;55.40;;;;;;5070469;28;20053;-69
2022/05/02 06:28:46;;;;;;;10.95;4.93;;;16.90;55.00;;;;;;5070502;28;20083;-69
2022/05/02 06:31:16;;;;;;;9.88;4.82;;;17.10;54.50;;;;;;5071194;28;20060;-69
2022/05/02 06:33:42;;;;;;;7.80;4.68;;;17.20;54.60;;;;;;5070066;28;20046;-69
2022/05/02 06:36:29;;;;;;;10.75;4.65;;;16.40;53.80;;;;;;5071391;28;20057;-70
2022/05/02 06:38:59;;;;;;;10.10;4.75;;;16.50;54.00;;;;;;5071689;28;20128;-69
2022/05/02 06:41:35;;;;;;;9.20;4.20;;;17.90;52.80;;;;;;5069936;28;20052;-69
2022/05/02 06:44:04;;;;;;;8.02;4.28;;;17.40;53.90;;;;;;5072617;28;20066;-70
2022/05/02 06:46:34;;;;;;;9.20;4.68;;;18.30;54.90;;;;;;5076199;28;20048;-70
2022/05/02 06:49:02;;;;;;;8.10;4.00;;;17.50;53.60;;;;;;5076137;28;20052;-69
2022/05/02 06:51:32;;;;;;;8.35;4.22;;;18.50;54.00;;;;;;5094645;28;20493;-70
2022/05/02 06:54:18;;;;;;;7.28;4.03;;;17.00;52.60;;;;;;5092580;28;20073;-70
2022/05/02 06:56:45;;;;;;;8.82;4.05;;;18.20;54.10;;;;;;5093736;28;20051;-70
2022/05/02 06:59:37;;;;;;;10.57;3.90;;;18.20;47.40;;;;;;5093773;28;20052;-70
2022/05/02 07:02:29;;;;;;;9.18;3.88;;;18.30;47.30;;;;;;5089305;28;20477;-69
2022/05/02 07:04:56;;;;;;;9.43;4.60;;;18.30;53.50;;;;;;5073806;28;20052;-69
2022/05/02 07:07:48;;;;;;;7.47;3.90;;;19.00;53.50;;;;;;5073760;28;20101;-70
2022/05/02 07:10:15;;;;;;;6.50;3.60;;;18.50;53.40;;;;;;5073400;28;20059;-71
2022/05/02 07:12:57;;;;;;;7.47;3.75;;;18.30;52.90;;;;;;5073575;28;20063;-70
2022/05/02 07:15:28;;;;;;;6.82;3.45;;;18.80;53.00;;;;;;5073457;28;20052;-70
2022/05/02 07:18:03;;;;;;;7.55;3.55;;;18.80;46.90;;;;;;5073271;28;20049;-69
2022/05/02 07:20:36;;;;;;;6.97;3.38;;;19.50;53.20;;;;;;5087291;28;20056;-69
2022/05/02 07:23:34;;;;;;;6.20;3.35;;;19.10;52.80;;;;;;5094749;28;20056;-69
2022/05/02 07:26:04;;;;;;;8.02;3.58;;;19.20;53.40;;;;;;5093172;28;20066;-69
2022/05/02 07:28:34;;;;;;;6.65;3.28;;;19.30;53.00;;;;;;5092955;28;20062;-69
2022/05/02 07:31:01;;;;;;;6.10;3.05;;;18.90;52.40;;;;;;5093001;28;20058;-69
2022/05/02 07:33:31;;;;;;;6.53;3.10;;;19.40;54.10;;;;;;5093391;28;20399;-69
2022/05/02 07:35:58;;;;;;;6.30;2.92;;;19.20;53.10;;;;;;5091643;28;20052;-68
2022/05/02 07:38:26;;;;;;;7.30;3.30;;;19.30;52.60;;;;;;5093477;28;20058;-70
2022/05/02 07:43:38;;;;;;;6.93;3.13;;;20.20;52.90;;;;;;5127167;27;20052;-69
2022/05/02 07:46:05;;;;;;;5.82;3.15;;;20.40;52.80;;;;;;5093144;28;20063;-68
2022/05/02 07:48:31;;;;;;;6.78;3.10;;;19.50;52.60;;;;;;5094042;28;20048;-70
2022/05/02 07:50:58;;;;;;;4.93;2.83;;;19.90;52.90;;;;;;5093127;28;20064;-68
2022/05/02 07:53:25;;;;;;;4.75;2.72;;;19.60;52.20;;;;;;5077440;28;20485;-69
2022/05/02 07:55:52;;;;;;;6.63;2.92;;;19.50;52.30;;;;;;5071609;28;20059;-69
2022/05/02 07:58:20;;;;;;;5.10;2.58;;;19.90;53.20;;;;;;5086098;28;20048;-68
2022/05/02 08:00:47;;;;;;;4.85;2.80;;;19.70;52.10;;;;;;5092507;28;20056;-69
2022/05/02 08:03:13;;;;;;;4.47;2.50;;;20.10;55.10;;;;;;5094125;28;20047;-68
2022/05/02 08:05:40;;;;;;;5.65;2.67;;;;;;;;;;5092484;28;20055;-70
2022/05/02 08:08:13;;;;;;;4.47;2.53;;;20.50;52.70;;;;;;5090336;28;20409;-69
2022/05/02 08:10:48;;;;;;;4.63;2.28;;;19.60;52.20;;;;;;5072271;28;20052;-69
2022/05/02 08:13:22;;;;;;;;;;;20.00;47.10;;;;;;5072929;28;20055;-71
2022/05/02 08:15:51;;;;;;;4.30;2.30;;;19.90;51.90;;;;;;5075482;28;19920;-72
2022/05/02 08:18:33;;;;;;;4.35;2.25;;;20.10;46.90;;;;;;5092919;28;20048;-70
2022/05/02 08:21:01;;;;;;;5.32;2.42;;;20.20;52.10;;;;;;5087828;28;20056;-70
2022/05/02 08:29:19;;;;;;;4.47;2.15;;;19.80;51.80;;;;;;5071958;28;20044;-69
2022/05/02 08:32:05;;;;;;;4.63;2.40;;;20.10;51.60;;;;;;5071656;28;20056;-69
2022/05/02 08:34:33;;;;;;;;;;;20.20;46.80;;;;;;5078147;28;20501;-69
2022/05/02 08:37:08;;;;;;;3.65;2.10;;;20.20;52.70;;;;;;5093224;28;20300;-69
2022/05/02 08:39:37;;;;;;;4.43;2.28;;;20.00;51.50;;;;;;5075423;28;20140;-71
2022/05/02 08:42:44;;;;;;;5.85;2.10;;;19.80;51.30;;;;;;5088686;28;20070;-69
2022/05/02 08:45:28;;;;;;;6.63;2.25;;;20.40;54.20;;;;;;5050104;28;20103;-69
2022/05/02 08:48:43;;;;;;;5.97;2.22;;;19.40;51.50;;;;;;5088844;28;20110;-69
2022/05/02 08:51:54;;;;;;;5.22;2.25;;;20.90;52.30;;;;;;5083609;28;20123;-69
2022/05/02 08:54:50;;;;;;;5.47;2.35;;;20.40;54.10;;;;;;5099894;28;20485;-69
2022/05/02 08:58:00;;;;;;;3.63;2.22;;;19.70;53.90;;;;;;5091303;28;20053;-69
2022/05/02 09:00:34;;;;;;;4.90;2.03;;;19.60;51.50;;;;;;5089955;28;20124;-69
2022/05/02 09:03:29;;;;;;;6.93;2.25;;;20.30;53.10;;;;;;5106342;28;20083;-69
2022/05/02 09:06:34;;;;;;;3.67;2.08;;;20.00;52.20;;;;;;5111921;28;20487;-70
2022/05/02 09:09:21;;;;;;;3.55;2.05;;;20.50;52.90;;;;;;5112125;28;20066;-69
2022/05/02 09:11:55;;;;;;;37.38;10.43;;;20.30;47.20;;;;;;5081085;28;20408;-69
2022/05/02 09:14:47;;;;;;;20.50;6.97;;;20.30;47.10;;;;;;5072160;28;20054;-69
2022/05/02 09:18:04;;;;;;;27.75;9.18;;;20.20;52.20;;;;;;5072248;28;20053;-70
2022/05/02 09:20:47;;;;;;;16.98;5.85;;;20.30;52.40;;;;;;5088174;28;20058;-69
2022/05/02 09:23:59;;;;;;;15.98;5.20;;;20.20;47.20;;;;;;5088814;28;20058;-71
2022/05/02 09:26:53;;;;;;;14.68;4.28;;;20.30;52.30;;;;;;5089250;28;20056;-71
2022/05/02 09:29:46;;;;;;;13.55;4.60;;;20.20;47.10;;;;;;5071815;28;20048;-71
2022/05/02 09:32:17;;;;;;;10.93;4.03;;;19.60;46.80;;;;;;5071382;28;20056;-71
2022/05/02 09:34:47;;;;;;;10.32;4.28;;;20.10;51.50;;;;;;5071420;28;20050;-71
2022/05/02 09:37:19;;;;;;;11.98;4.15;;;20.20;47.00;;;;;;5070181;28;20052;-71
2022/05/02 09:39:47;;;;;;;11.35;4.18;;;19.90;52.00;;;;;;5069744;28;20054;-70
2022/05/02 09:42:23;;;;;;;6.35;3.58;;;20.40;53.00;;;;;;5070905;28;20063;-71
2022/05/02 09:51:43;;;;;;;9.00;3.73;;;20.30;51.90;;;;;;5123899;27;20485;-71
2022/05/02 09:56:37;;;;;;;7.95;3.85;;;20.30;52.40;;;;;;5091159;28;20051;-71
2022/05/02 09:57:01;;;;;;;9.55;3.50;;;20.40;51.70;;;;;;5090298;28;20048;-71
2022/05/02 09:59:28;;;;;;;8.55;3.22;;;19.50;52.40;;;;;;5090179;28;20039;-69
2022/05/02 10:01:59;;;;;;;6.13;3.35;;;20.10;46.70;;;;;;5090380;28;20064;-71
2022/05/02 10:04:37;;;;;;;11.85;3.92;;;20.20;52.50;;;;;;5098920;28;20081;-71
2022/05/02 10:07:09;;;;;;;7.25;3.35;;;20.40;51.70;;;;;;5099418;28;20489;-70
2022/05/02 10:09:45;;;;;;;6.50;3.30;;;20.10;52.50;;;;;;5096771;28;20131;-71
2022/05/02 10:12:24;;;;;;;6.97;3.13;;;21.20;52.80;;;;;;5094991;28;20044;-71
2022/05/02 10:14:57;;;;;;;8.13;3.30;;;19.10;53.30;;;;;;5096468;28;20043;-70
2022/05/02 10:17:33;;;;;;;8.85;3.20;;;20.10;46.80;;;;;;5097193;28;20052;-70
2022/05/02 10:20:05;;;;;;;7.60;3.33;;;20.10;46.80;;;;;;5094394;28;20798;-69
2022/05/02 10:22:41;;;;;;;7.32;2.90;;;20.10;52.20;;;;;;5128809;27;20562;-72
2022/05/02 10:25:11;;;;;;;6.28;2.90;;;21.10;52.60;;;;;;5094488;28;20051;-71
2022/05/02 10:27:52;;;;;;;8.73;3.20;;;19.50;52.70;;;;;;5123069;27;20052;-71
2022/05/02 10:30:19;;;;;;;4.45;2.53;;;20.70;52.20;;;;;;5073960;28;20048;-70
2022/05/02 10:32:53;;;;;;;5.22;2.88;;;20.00;46.80;;;;;;5072717;28;20071;-71
2022/05/02 10:35:21;;;;;;;7.25;2.75;;;19.60;52.60;;;;;;5072915;28;20390;-70
2022/05/02 10:37:55;;;;;;;4.32;2.50;;;19.20;51.60;;;;;;5072751;28;20059;-69
2022/05/02 10:40:29;;;;;;;5.25;2.80;;;19.90;46.80;;;;;;5079474;28;20044;-70
2022/05/02 10:42:57;;;;;;;6.47;3.05;;;19.90;46.80;;;;;;5090563;28;20131;-71
2022/05/02 10:45:25;;;;;;;4.93;2.63;;;19.90;46.80;;;;;;5094112;28;20074;-70
2022/05/02 10:47:53;;;;;;;4.72;2.83;;;19.90;51.60;;;;;;5094899;28;20109;-70
2022/05/02 10:50:21;;;;;;;5.43;2.67;;;19.90;46.90;;;;;;5094764;28;20044;-70
2022/05/02 10:53:23;;;;;;;5.03;2.53;;;19.50;53.00;;;;;;5094152;28;20519;-70
2022/05/02 10:55:57;;;;;;;4.95;2.53;;;19.80;51.90;;;;;;5095643;28;20409;-70
2022/05/02 10:58:23;;;;;;;5.70;2.70;;;19.90;52.20;;;;;;5092522;28;20471;-70
2022/05/02 11:00:58;;;;;;;5.07;2.40;;;19.50;51.70;;;;;;5094764;28;20055;-70
2022/05/02 11:03:26;;;;;;;;;;;19.80;47.00;;;;;;5094657;28;20059;-72
2022/05/02 11:06:01;;;;;;;4.28;2.30;;;19.10;51.70;;;;;;5088384;28;19920;-70
2022/05/02 11:08:32;;;;;;;4.22;2.45;;;19.80;47.10;;;;;;5073271;28;20056;-70
2022/05/02 11:11:00;;;;;;;5.65;2.42;;;18.90;51.30;;;;;;5082142;28;20047;-70
2022/05/02 11:13:30;;;;;;;3.92;2.50;;;19.80;52.50;;;;;;5094901;28;20044;-70
2022/05/02 11:16:03;;;;;;;3.97;2.33;;;19.50;51.80;;;;;;5094606;28;20048;-70
2022/05/02 11:21:31;;;;;;;4.93;2.28;;;19.60;47.10;;;;;;5102301;28;20031;-70
2022/05/02 11:24:18;;;;;;;5.53;2.28;;;19.60;47.20;;;;;;5102089;28;20078;-70
2022/05/02 11:26:51;;;;;;;3.95;2.10;;;19.60;46.70;;;;;;5107291;28;20050;-72
2022/05/02 11:29:22;;;;;;;5.07;2.60;;;20.40;52.70;;;;;;5113384;28;20051;-70
2022/05/02 11:31:54;;;;;;;4.10;2.53;;;20.40;52.20;;;;;;5107650;28;20044;-70
2022/05/02 11:34:37;;;;;;;3.78;2.40;;;19.60;47.50;;;;;;5101285;28;20048;-70
2022/05/02 11:37:06;;;;;;;4.35;2.10;;;19.60;52.70;;;;;;5102227;28;20067;-71
2022/05/02 11:39:37;;;;;;;4.05;2.20;;;20.00;52.60;;;;;;5100547;28;20044;-70
2022/05/02 11:42:09;;;;;;;4.65;2.42;;;19.70;47.20;;;;;;5097011;28;20060;-70
2022/05/02 11:44:38;;;;;;;4.18;2.17;;;19.70;47.20;;;;;;5091256;28;20481;-70
2022/05/02 11:47:08;;;;;;;4.53;2.35;;;19.40;51.90;;;;;;5087693;28;20066;-71
2022/05/02 11:49:42;;;;;;;2.85;2.20;;;19.50;53.20;;;;;;5094365;28;20097;-70
2022/05/02 11:52:12;;;;;;;3.72;2.20;;;18.80;52.40;;;;;;5093838;28;20048;-70
2022/05/02 11:54:42;;;;;;;3.00;2.30;;;19.40;52.60;;;;;;5092476;28;20076;-71
2022/05/02 11:57:16;;;;;;;3.97;2.13;;;18.80;51.90;;;;;;5094167;28;20472;-70
2022/05/02 12:00:00;;;;;;;5.45;2.30;;;19.50;51.90;;;;;;5091952;28;20515;-70
2022/05/02 12:02:43;;;;;;;3.63;2.13;;;19.40;52.30;;;;;;5072667;28;20052;-70
2022/05/02 12:05:31;;;;;;;4.07;2.28;;;19.40;52.00;;;;;;5070710;28;20394;-70
2022/05/02 12:07:58;;;;;;;3.35;2.13;;;19.50;53.50;;;;;;5072726;28;20102;-69
2022/05/02 12:10:34;;;;;;;12.75;4.25;;;19.60;52.50;;;;;;5072375;28;20383;-69
2022/05/02 12:13:01;;;;;;;6.88;3.20;;;19.40;52.00;;;;;;5072942;28;20049;-70
2022/05/02 12:15:28;;;;;;;10.05;3.17;;;19.60;47.30;;;;;;5072152;28;20064;-69
2022/05/02 12:17:56;;;;;;;7.70;3.50;;;19.60;47.30;;;;;;5085058;28;20515;-69
2022/05/02 12:20:24;;;;;;;8.07;3.08;;;19.80;52.60;;;;;;5083905;28;20060;-70
2022/05/02 12:22:55;;;;;;;5.82;2.80;;;20.30;52.50;;;;;;5126519;27;20477;-69
2022/05/02 12:25:23;;;;;;;7.28;3.10;;;19.10;52.10;;;;;;5076926;28;20052;-71
2022/05/02 12:27:52;;;;;;;7.93;3.15;;;19.70;52.30;;;;;;5090457;28;20126;-71
2022/05/02 12:30:18;;;;;;;5.97;2.95;;;19.60;47.50;;;;;;5099652;28;20412;-71
2022/05/02 12:32:46;;;;;;;7.78;3.35;;;20.50;52.80;;;;;;5101820;28;20044;-71
2022/05/02 12:35:13;;;;;;;7.70;3.85;;;19.40;52.40;;;;;;5102707;28;20040;-70
2022/05/02 12:37:42;;;;;;;7.13;3.13;;;19.90;52.30;;;;;;5103657;28;20044;-71
2022/05/02 12:40:12;;;;;;;6.18;2.80;;;20.20;52.80;;;;;;5100042;28;20051;-71
2022/05/02 12:42:41;;;;;;;6.35;2.72;;;19.60;47.60;;;;;;5101115;28;20055;-70
2022/05/02 12:45:11;;;;;;;6.32;3.17;;;19.50;53.00;;;;;;5100599;28;20131;-70
2022/05/02 12:47:41;;;;;;;5.68;3.00;;;19.50;47.60;;;;;;5102650;28;20048;-71
2022/05/02 12:50:13;;;;;;;6.28;3.05;;;18.90;51.70;;;;;;5098219;28;20055;-70
2022/05/02 12:52:44;;;;;;;6.60;3.00;;;19.40;53.00;;;;;;5102502;28;20052;-71
2022/05/02 12:55:11;;;;;;;6.22;3.00;;;19.50;52.50;;;;;;5092657;28;20044;-71
2022/05/02 13:00:36;;;;;;;5.10;2.67;;;19.50;54.00;;;;;;5122953;27;20052;-71
2022/05/02 13:03:16;;;;;;;5.35;2.67;;;19.50;52.20;;;;;;5091374;28;20086;-70
2022/05/02 13:05:54;;;;;;;4.85;3.10;;;19.20;52.20;;;;;;5090837;28;20048;-70
2022/05/02 13:08:29;;;;;;;6.68;3.58;;;19.50;53.60;;;;;;5087638;28;20105;-71
2022/05/02 13:11:04;;;;;;;5.05;2.60;;;19.40;53.20;;;;;;5071347;28;20072;-71
2022/05/02 13:13:37;;;;;;;4.15;2.35;;;18.70;52.10;;;;;;5077506;28;20040;-70
2022/05/02 13:16:12;;;;;;;5.13;2.90;;;19.50;47.80;;;;;;5092528;28;20374;-71
2022/05/02 13:18:45;;;;;;;3.53;2.80;;;19.60;52.30;;;;;;5084835;28;20052;-71
2022/05/02 13:21:12;;;;;;;6.20;2.70;;;20.30;54.70;;;;;;5072191;28;20064;-71
2022/05/02 13:23:39;;;;;;;4.03;2.60;;;19.60;52.80;;;;;;5088560;28;20503;-71
2022/05/02 13:26:16;;;;;;;4.65;2.58;;;19.70;52.60;;;;;;5089620;28;20074;-71
2022/05/02 13:28:50;;;;;;;4.38;2.80;;;19.50;47.70;;;;;;5092101;28;20492;-71
2022/05/02 13:31:21;;;;;;;6.32;2.83;;;19.70;52.70;;;;;;5090894;28;20062;-70
2022/05/02 13:33:53;;;;;;;3.75;2.45;;;18.80;51.70;;;;;;5092389;28;20052;-71
2022/05/02 13:36:20;;;;;;;3.78;2.63;;;19.50;53.10;;;;;;5083420;28;20056;-70
2022/05/02 13:38:53;;;;;;;3.20;2.20;;;19.50;47.70;;;;;;5092308;28;20044;-70
2022/05/02 13:41:23;;;;;;;6.05;2.53;;;19.20;52.30;;;;;;5076244;28;20045;-71
2022/05/02 13:43:53;;;;;;;3.35;2.50;;;19.40;52.40;;;;;;5086162;28;20119;-70
2022/05/02 13:46:27;;;;;;;4.72;2.42;;;20.40;55.10;;;;;;5090876;28;20052;-71
2022/05/02 13:49:03;;;;;;;3.70;2.42;;;19.40;52.80;;;;;;5076123;28;20113;-71